Time;durP1;ratioP1;P1;durP2;ratioP2;P2;SDS_P1;SDS_P2;PMS_P1;PMS_P2;Temp;Humidity;BMP_temperature;BMP_pressure;BME280_temperature;BME280_humidity;BME280_pressure;Samples;Min_cycle;Max_cycle;Signal;HPM_P1;HPM_P2
2021/09/03 00:01:04;;;;;;;16.30;10.90;;;;;;;;;;5054663;28;20017;-83
2021/09/03 00:03:31;;;;;;;16.88;10.07;;;;;;;;;;5020600;28;20029;-83
2021/09/03 00:05:56;;;;;;;16.52;10.75;;;;;;;;;;5053323;28;20078;-83
2021/09/03 00:08:22;;;;;;;14.20;10.68;;;;;;;;;;5053874;28;20024;-83
2021/09/03 00:10:47;;;;;;;16.63;10.73;;;;;;;;;;5036769;28;20443;-83
2021/09/03 00:13:13;;;;;;;17.35;10.93;;;;;;;;;;5054832;28;20032;-83
2021/09/03 00:15:38;;;;;;;13.73;10.32;;;;;;;;;;5036290;28;20036;-83
2021/09/03 00:18:04;;;;;;;16.42;11.23;;;;;;;;;;5054531;28;20067;-83
2021/09/03 00:20:30;;;;;;;19.60;10.43;;;;;;;;;;5036873;28;20517;-83
2021/09/03 00:22:55;;;;;;;16.33;10.80;;;;;;;;;;5053793;28;20028;-83
2021/09/03 00:25:21;;;;;;;15.48;10.25;;;;;;;;;;5036599;28;20028;-83
2021/09/03 00:27:46;;;;;;;15.35;10.48;;;;;;;;;;5036918;28;20025;-83
2021/09/03 00:30:12;;;;;;;15.30;10.52;;;;;;;;;;5036312;28;20083;-83
2021/09/03 00:32:38;;;;;;;14.95;10.43;;;;;;;;;;5053183;28;20083;-83
2021/09/03 00:35:05;;;;;;;15.52;9.88;;;;;;;;;;5052825;28;20028;-83
2021/09/03 00:37:31;;;;;;;14.93;10.20;;;;;;;;;;5037986;28;20033;-83
2021/09/03 00:39:56;;;;;;;13.32;9.88;;;;;;;;;;5052958;28;20485;-83
2021/09/03 00:42:21;;;;;;;14.02;9.77;;;;;;;;;;5019936;28;20124;-83
2021/09/03 00:44:47;;;;;;;16.08;10.18;;;;;;;;;;5036427;28;20036;-83
2021/09/03 00:47:12;;;;;;;14.40;10.43;;;;;;;;;;5052936;28;20032;-83
2021/09/03 00:49:38;;;;;;;15.13;10.27;;;;;;;;;;5020145;28;20033;-83
2021/09/03 00:52:06;;;;;;;14.75;9.63;;;;;;;;;;5052999;28;20370;-83
2021/09/03 00:54:32;;;;;;;14.63;9.98;;;;;;;;;;5052525;28;20147;-83
2021/09/03 00:56:58;;;;;;;14.90;9.98;;;;;;;;;;5054296;28;20477;-83
2021/09/03 00:59:23;;;;;;;17.17;10.13;;;;;;;;;;5053395;28;20492;-83
2021/09/03 01:01:49;;;;;;;17.08;10.70;;;;;;;;;;5054559;28;20115;-83
2021/09/03 01:04:14;;;;;;;16.30;10.48;;;;;;;;;;5036503;28;20491;-83
2021/09/03 01:06:40;;;;;;;17.45;10.10;;;;;;;;;;5053284;28;20511;-83
2021/09/03 01:09:05;;;;;;;14.48;9.48;;;;;;;;;;5036081;28;20029;-83
2021/09/03 01:11:30;;;;;;;15.77;10.52;;;;;;;;;;5036271;28;20052;-83
2021/09/03 01:13:56;;;;;;;15.27;10.57;;;;;;;;;;5036654;28;20083;-83
2021/09/03 01:16:21;;;;;;;15.27;9.80;;;;;;;;;;5036234;28;20455;-83
2021/09/03 01:18:47;;;;;;;16.30;9.60;;;;;;;;;;5053012;28;20036;-83
2021/09/03 01:21:12;;;;;;;17.27;10.23;;;;;;;;;;5054069;28;20392;-83
2021/09/03 01:23:38;;;;;;;17.65;10.65;;;;;;;;;;5036325;28;20025;-83
2021/09/03 01:26:05;;;;;;;15.52;9.77;;;;;;;;;;5036242;28;20028;-83
2021/09/03 01:28:31;;;;;;;15.00;10.10;;;;;;;;;;5055103;28;20021;-83
2021/09/03 01:30:56;;;;;;;15.38;9.82;;;;;;;;;;5057865;28;20250;-83
2021/09/03 01:33:22;;;;;;;16.10;9.75;;;;;;;;;;5056305;28;20375;-83
2021/09/03 01:35:47;;;;;;;14.85;9.88;;;;;;;;;;5057724;28;20031;-83
2021/09/03 01:38:13;;;;;;;19.50;9.75;;;;;;;;;;5040094;28;20396;-83
2021/09/03 01:40:38;;;;;;;14.63;9.70;;;;;;;;;;5056806;28;20119;-83
2021/09/03 01:43:04;;;;;;;14.07;9.55;;;;;;;;;;5056714;28;20388;-83
2021/09/03 01:45:29;;;;;;;18.27;9.57;;;;;;;;;;5057934;28;20017;-83
2021/09/03 01:47:55;;;;;;;15.45;10.10;;;;;;;;;;5023787;28;20098;-83
2021/09/03 01:50:20;;;;;;;16.85;10.38;;;;;;;;;;5039479;28;20032;-83
2021/09/03 01:52:46;;;;;;;16.35;9.80;;;;;;;;;;5056195;28;20106;-83
2021/09/03 01:55:11;;;;;;;14.68;9.93;;;;;;;;;;5039592;28;20041;-83
2021/09/03 01:57:36;;;;;;;15.23;10.43;;;;;;;;;;5022689;28;20063;-83
2021/09/03 02:00:04;;;;;;;16.88;10.45;;;;;;;;;;5056352;28;20487;-83
2021/09/03 02:02:30;;;;;;;16.98;9.95;;;;;;;;;;5055845;28;20032;-83
2021/09/03 02:04:55;;;;;;;15.85;9.80;;;;;;;;;;5039366;28;20468;-83
2021/09/03 02:07:21;;;;;;;14.80;10.00;;;;;;;;;;5055401;28;20074;-83
2021/09/03 02:09:46;;;;;;;17.38;10.73;;;;;;;;;;5055855;28;20087;-83
2021/09/03 02:12:12;;;;;;;16.52;9.70;;;;;;;;;;5055392;28;20086;-83
2021/09/03 02:14:43;;;;;;;14.98;10.48;;;;;;;;;;5022530;28;20036;-83
2021/09/03 02:17:09;;;;;;;16.33;10.55;;;;;;;;;;5038901;28;20032;-83
2021/09/03 02:19:34;;;;;;;17.35;10.20;;;;;;;;;;5022401;28;20052;-83
2021/09/03 02:22:00;;;;;;;16.02;9.80;;;;;;;;;;5055636;28;20025;-83
2021/09/03 02:24:25;;;;;;;16.25;10.02;;;;;;;;;;5056521;28;20033;-83
2021/09/03 02:26:51;;;;;;;19.83;10.02;;;;;;;;;;5038504;28;20021;-83
2021/09/03 02:29:16;;;;;;;16.63;10.20;;;;;;;;;;5055407;28;20029;-83
2021/09/03 02:31:42;;;;;;;16.08;10.70;;;;;;;;;;5038496;28;20476;-83
2021/09/03 02:34:07;;;;;;;16.65;10.52;;;;;;;;;;5036961;28;20052;-83
2021/09/03 02:36:33;;;;;;;17.98;10.75;;;;;;;;;;5038443;28;20087;-83
2021/09/03 02:38:58;;;;;;;16.92;10.38;;;;;;;;;;5038516;28;20095;-83
2021/09/03 02:41:24;;;;;;;17.45;10.50;;;;;;;;;;5055188;28;20056;-83
2021/09/03 02:43:49;;;;;;;19.05;10.73;;;;;;;;;;5038765;28;20083;-83
2021/09/03 02:46:15;;;;;;;17.10;10.60;;;;;;;;;;5056467;28;20078;-83
2021/09/03 02:48:40;;;;;;;17.48;10.57;;;;;;;;;;5038390;28;20108;-83
2021/09/03 02:51:06;;;;;;;17.55;10.95;;;;;;;;;;5055957;28;20029;-83
2021/09/03 02:53:31;;;;;;;14.20;10.32;;;;;;;;;;5021423;28;20053;-83
2021/09/03 02:55:56;;;;;;;17.55;10.95;;;;;;;;;;5037819;28;20032;-83
2021/09/03 02:58:22;;;;;;;17.23;10.90;;;;;;;;;;5038330;28;20029;-83
2021/09/03 03:00:47;;;;;;;20.33;12.00;;;;;;;;;;5038135;28;20028;-83
2021/09/03 03:03:13;;;;;;;18.27;11.70;;;;;;;;;;5054820;28;20025;-83
2021/09/03 03:05:38;;;;;;;18.40;11.40;;;;;;;;;;5034932;28;20057;-83
2021/09/03 03:08:04;;;;;;;16.17;11.52;;;;;;;;;;5036933;28;20111;-83
2021/09/03 03:10:30;;;;;;;17.73;11.55;;;;;;;;;;5060207;28;20032;-83
2021/09/03 03:12:56;;;;;;;18.58;11.70;;;;;;;;;;5055923;28;20036;-83
2021/09/03 03:15:22;;;;;;;19.42;11.40;;;;;;;;;;5036288;28;20022;-83
2021/09/03 03:17:48;;;;;;;17.40;12.25;;;;;;;;;;5054203;28;20029;-83
2021/09/03 03:20:13;;;;;;;16.95;11.93;;;;;;;;;;5037985;28;20090;-83
2021/09/03 03:22:38;;;;;;;19.10;12.00;;;;;;;;;;5054423;28;20036;-83
2021/09/03 03:25:05;;;;;;;17.90;12.00;;;;;;;;;;5054585;28;20024;-83
2021/09/03 03:27:30;;;;;;;19.83;11.95;;;;;;;;;;5037533;28;20025;-83
2021/09/03 03:29:56;;;;;;;20.95;12.25;;;;;;;;;;5055288;28;20108;-83
2021/09/03 03:32:21;;;;;;;17.83;11.57;;;;;;;;;;5020535;28;20029;-83
2021/09/03 03:34:46;;;;;;;20.48;12.23;;;;;;;;;;5053737;28;20044;-83
2021/09/03 03:37:12;;;;;;;20.85;12.15;;;;;;;;;;5037422;28;20029;-83
2021/09/03 03:39:37;;;;;;;18.02;11.43;;;;;;;;;;5020775;28;20491;-83
2021/09/03 03:42:03;;;;;;;19.45;12.00;;;;;;;;;;5037111;28;20029;-83
2021/09/03 03:44:28;;;;;;;16.52;11.48;;;;;;;;;;5037035;28;20029;-83
2021/09/03 03:46:54;;;;;;;18.83;12.15;;;;;;;;;;5053885;28;20027;-83
2021/09/03 03:49:19;;;;;;;20.67;12.60;;;;;;;;;;5037276;28;20032;-83
2021/09/03 03:51:45;;;;;;;20.77;12.38;;;;;;;;;;5020081;28;20032;-83
2021/09/03 03:54:10;;;;;;;21.00;12.25;;;;;;;;;;5020560;28;20190;-83
2021/09/03 03:56:36;;;;;;;19.95;12.00;;;;;;;;;;5020464;28;20029;-83
2021/09/03 03:59:01;;;;;;;20.63;12.43;;;;;;;;;;5037259;28;20481;-83
2021/09/03 04:01:26;;;;;;;21.73;12.07;;;;;;;;;;5054315;28;20503;-83
2021/09/03 04:03:52;;;;;;;20.33;12.15;;;;;;;;;;5020422;28;20025;-83
2021/09/03 04:06:17;;;;;;;18.58;12.80;;;;;;;;;;5020517;28;20032;-83
2021/09/03 04:08:43;;;;;;;18.60;12.20;;;;;;;;;;5053644;28;20032;-83
2021/09/03 04:11:08;;;;;;;21.10;12.15;;;;;;;;;;5036518;28;20151;-83
2021/09/03 04:13:33;;;;;;;19.13;11.77;;;;;;;;;;5053785;28;20111;-83
2021/09/03 04:15:59;;;;;;;19.10;11.63;;;;;;;;;;5036681;28;20033;-83
2021/09/03 04:18:24;;;;;;;19.70;12.52;;;;;;;;;;5020230;28;20369;-83
2021/09/03 04:20:50;;;;;;;19.83;12.13;;;;;;;;;;5036316;28;20025;-83
2021/09/03 04:23:15;;;;;;;20.20;12.35;;;;;;;;;;5037006;28;20033;-83
2021/09/03 04:25:41;;;;;;;18.52;12.93;;;;;;;;;;5037191;28;20033;-83
2021/09/03 04:28:06;;;;;;;19.75;12.75;;;;;;;;;;5036880;28;20036;-83
2021/09/03 04:30:32;;;;;;;19.20;11.80;;;;;;;;;;5054807;28;20104;-83
2021/09/03 04:32:58;;;;;;;22.10;13.15;;;;;;;;;;5036540;28;20025;-83
2021/09/03 04:35:23;;;;;;;22.70;12.45;;;;;;;;;;5053250;28;20082;-83
2021/09/03 04:37:51;;;;;;;17.27;12.15;;;;;;;;;;5037037;28;20040;-83
2021/09/03 04:40:18;;;;;;;17.80;12.13;;;;;;;;;;5053637;28;20033;-83
2021/09/03 04:42:44;;;;;;;17.83;12.82;;;;;;;;;;5036990;28;20025;-83
2021/09/03 04:45:10;;;;;;;18.75;12.73;;;;;;;;;;5053198;28;20017;-83
2021/09/03 04:47:36;;;;;;;21.33;13.15;;;;;;;;;;5036840;28;20033;-83
2021/09/03 04:50:04;;;;;;;20.98;12.35;;;;;;;;;;5053139;28;20472;-83
2021/09/03 04:52:29;;;;;;;19.92;13.13;;;;;;;;;;5052782;28;20027;-83
2021/09/03 04:54:55;;;;;;;18.83;12.63;;;;;;;;;;5052769;28;20037;-83
2021/09/03 04:57:20;;;;;;;20.15;12.85;;;;;;;;;;5036873;28;20460;-83
2021/09/03 04:59:45;;;;;;;20.58;13.00;;;;;;;;;;5019829;28;20057;-83
2021/09/03 05:02:11;;;;;;;20.48;13.20;;;;;;;;;;5036423;28;20044;-83
2021/09/03 05:04:36;;;;;;;18.90;12.52;;;;;;;;;;5057204;28;20025;-83
2021/09/03 05:07:02;;;;;;;21.58;13.15;;;;;;;;;;5056843;28;20025;-83
2021/09/03 05:09:27;;;;;;;23.35;12.80;;;;;;;;;;5056636;28;20361;-83
2021/09/03 05:11:53;;;;;;;19.15;12.90;;;;;;;;;;5044074;28;20090;-82
2021/09/03 05:14:18;;;;;;;20.70;12.77;;;;;;;;;;5040478;28;20025;-82
2021/09/03 05:16:43;;;;;;;18.27;12.73;;;;;;;;;;5057284;28;20383;-82
2021/09/03 05:19:09;;;;;;;23.63;12.70;;;;;;;;;;5056844;28;20029;-82
2021/09/03 05:21:35;;;;;;;19.65;12.60;;;;;;;;;;5057434;28;20068;-82
2021/09/03 05:24:00;;;;;;;20.38;13.05;;;;;;;;;;5057198;28;20487;-82
2021/09/03 05:26:26;;;;;;;19.67;12.57;;;;;;;;;;5058629;28;20468;-82
2021/09/03 05:28:51;;;;;;;20.20;13.25;;;;;;;;;;5058787;28;20473;-82
2021/09/03 05:31:17;;;;;;;22.20;12.98;;;;;;;;;;5040779;28;20480;-82
2021/09/03 05:33:42;;;;;;;18.50;13.15;;;;;;;;;;5057291;28;20039;-82
2021/09/03 05:36:08;;;;;;;18.35;12.00;;;;;;;;;;5056672;28;20033;-82
2021/09/03 05:38:33;;;;;;;19.45;12.80;;;;;;;;;;5058336;28;20032;-82
2021/09/03 05:40:59;;;;;;;20.83;13.10;;;;;;;;;;5023807;28;20116;-82
2021/09/03 05:43:24;;;;;;;21.42;13.52;;;;;;;;;;5056799;28;20083;-82
2021/09/03 05:45:50;;;;;;;20.92;13.18;;;;;;;;;;5025983;28;20035;-82
2021/09/03 05:48:15;;;;;;;22.08;12.68;;;;;;;;;;5040418;28;20400;-82
2021/09/03 05:50:41;;;;;;;20.45;13.25;;;;;;;;;;5057130;28;20032;-82
2021/09/03 05:53:06;;;;;;;22.42;12.95;;;;;;;;;;5040429;28;20519;-82
2021/09/03 05:55:32;;;;;;;21.40;13.43;;;;;;;;;;5058143;28;20098;-82
2021/09/03 05:57:58;;;;;;;21.48;13.73;;;;;;;;;;5057646;28;20047;-82
2021/09/03 06:00:24;;;;;;;24.40;12.75;;;;;;;;;;5057145;28;20028;-82
2021/09/03 06:02:49;;;;;;;21.25;14.18;;;;;;;;;;5040457;28;20032;-82
2021/09/03 06:05:14;;;;;;;22.58;13.75;;;;;;;;;;5040450;28;20029;-82
2021/09/03 06:07:40;;;;;;;20.65;14.00;;;;;;;;;;5024780;28;20125;-82
2021/09/03 06:10:06;;;;;;;20.05;13.60;;;;;;;;;;5042127;28;20066;-82
2021/09/03 06:12:32;;;;;;;23.25;13.25;;;;;;;;;;5023735;28;20036;-82
2021/09/03 06:14:57;;;;;;;21.00;13.82;;;;;;;;;;5023122;28;20032;-83
2021/09/03 06:17:24;;;;;;;24.70;15.13;;;;;;;;;;5040084;28;20062;-82
2021/09/03 06:19:49;;;;;;;21.48;14.43;;;;;;;;;;5039733;28;20485;-82
2021/09/03 06:22:14;;;;;;;22.17;15.23;;;;;;;;;;5055851;28;20166;-82
2021/09/03 06:24:40;;;;;;;21.95;15.10;;;;;;;;;;5040277;28;20029;-82
2021/09/03 06:27:09;;;;;;;24.20;16.00;;;;;;;;;;5056115;28;20412;-82
2021/09/03 06:29:42;;;;;;;26.20;17.10;;;;;;;;;;5055884;28;20021;-82
2021/09/03 06:32:21;;;;;;;28.02;16.60;;;;;;;;;;5056403;28;20031;-82
2021/09/03 06:34:48;;;;;;;23.00;16.48;;;;;;;;;;5055811;28;20065;-82
2021/09/03 06:37:14;;;;;;;25.85;15.98;;;;;;;;;;5055502;28;20496;-82
2021/09/03 06:39:40;;;;;;;27.13;17.50;;;;;;;;;;5056640;28;20029;-82
2021/09/03 06:42:07;;;;;;;25.60;17.13;;;;;;;;;;5039245;28;20033;-82
2021/09/03 06:44:33;;;;;;;25.83;16.95;;;;;;;;;;5057393;28;20435;-82
2021/09/03 06:46:59;;;;;;;26.25;16.40;;;;;;;;;;5055988;28;20370;-82
2021/09/03 06:49:25;;;;;;;24.73;17.70;;;;;;;;;;5022921;28;20036;-82
2021/09/03 06:51:51;;;;;;;29.83;17.25;;;;;;;;;;5039676;28;20056;-82
2021/09/03 06:54:16;;;;;;;27.42;17.27;;;;;;;;;;5055397;28;20468;-82
2021/09/03 06:56:42;;;;;;;27.90;18.58;;;;;;;;;;5038989;28;20388;-82
2021/09/03 06:59:08;;;;;;;26.05;16.45;;;;;;;;;;5055604;28;20122;-81
2021/09/03 07:01:33;;;;;;;24.33;15.95;;;;;;;;;;5055647;28;20380;-82
2021/09/03 07:03:59;;;;;;;26.00;16.85;;;;;;;;;;5038676;28;20536;-82
2021/09/03 07:06:24;;;;;;;25.05;16.75;;;;;;;;;;5054969;28;20039;-81
2021/09/03 07:08:50;;;;;;;22.50;15.88;;;;;;;;;;5055795;28;20029;-82
2021/09/03 07:11:15;;;;;;;24.90;17.42;;;;;;;;;;5066938;28;20037;-82
2021/09/03 07:13:41;;;;;;;27.58;17.05;;;;;;;;;;5055072;28;20021;-82
2021/09/03 07:16:07;;;;;;;27.75;17.08;;;;;;;;;;5038500;28;20025;-82
2021/09/03 07:18:32;;;;;;;30.90;19.10;;;;;;;;;;5054721;28;20031;-82
2021/09/03 07:20:58;;;;;;;30.40;18.02;;;;;;;;;;5038820;28;20033;-82
2021/09/03 07:23:23;;;;;;;27.35;18.20;;;;;;;;;;5038006;28;20032;-82
2021/09/03 07:25:49;;;;;;;27.38;18.00;;;;;;;;;;5053721;28;20029;-82
2021/09/03 07:28:15;;;;;;;29.38;19.10;;;;;;;;;;5054712;28;20024;-82
2021/09/03 07:30:40;;;;;;;32.20;17.75;;;;;;;;;;5054404;28;20090;-82
2021/09/03 07:33:06;;;;;;;29.80;18.65;;;;;;;;;;5055270;28;20050;-82
2021/09/03 07:35:31;;;;;;;29.73;18.40;;;;;;;;;;5054640;28;20037;-82
2021/09/03 07:37:57;;;;;;;29.05;18.95;;;;;;;;;;5035017;28;20381;-82
2021/09/03 07:40:23;;;;;;;26.02;18.60;;;;;;;;;;5051110;28;20353;-82
2021/09/03 07:42:49;;;;;;;28.60;18.52;;;;;;;;;;5055490;28;20040;-82
2021/09/03 07:45:15;;;;;;;27.90;18.88;;;;;;;;;;5055457;28;20381;-82
2021/09/03 07:47:40;;;;;;;31.13;19.40;;;;;;;;;;5038544;28;20025;-82
2021/09/03 07:50:07;;;;;;;28.70;19.20;;;;;;;;;;5037509;28;20567;-82
2021/09/03 07:52:32;;;;;;;26.02;19.05;;;;;;;;;;5054274;28;20143;-82
2021/09/03 07:54:58;;;;;;;28.67;18.92;;;;;;;;;;5054336;28;20076;-82
2021/09/03 07:57:23;;;;;;;26.95;18.73;;;;;;;;;;5038260;28;20032;-82
2021/09/03 07:59:49;;;;;;;27.23;19.48;;;;;;;;;;5055493;28;20025;-82
2021/09/03 08:02:14;;;;;;;28.65;19.63;;;;;;;;;;5038352;28;20031;-82
2021/09/03 08:04:39;;;;;;;28.70;19.60;;;;;;;;;;5054297;28;20029;-81
2021/09/03 08:07:05;;;;;;;26.25;18.23;;;;;;;;;;5054326;28;20481;-81
2021/09/03 08:09:30;;;;;;;32.20;19.83;;;;;;;;;;5053855;28;20048;-82
2021/09/03 08:11:56;;;;;;;28.40;19.55;;;;;;;;;;5037121;28;20480;-82
2021/09/03 08:14:21;;;;;;;30.15;18.85;;;;;;;;;;5037787;28;20017;-82
2021/09/03 08:16:47;;;;;;;26.08;19.02;;;;;;;;;;5038078;28;20029;-82
2021/09/03 08:19:12;;;;;;;28.88;19.42;;;;;;;;;;5020892;28;20083;-82
2021/09/03 08:21:38;;;;;;;28.05;18.73;;;;;;;;;;5036771;28;20472;-81
2021/09/03 08:24:04;;;;;;;28.45;18.80;;;;;;;;;;5053647;28;20028;-82
2021/09/03 08:26:29;;;;;;;30.65;19.10;;;;;;;;;;5037312;28;20051;-82
2021/09/03 08:28:56;;;;;;;30.77;18.95;;;;;;;;;;5036813;28;20541;-82
2021/09/03 08:31:22;;;;;;;25.70;18.23;;;;;;;;;;5054561;28;20487;-82
2021/09/03 08:33:48;;;;;;;30.60;18.33;;;;;;;;;;5053002;28;20024;-82
2021/09/03 08:36:13;;;;;;;24.83;18.17;;;;;;;;;;5053271;28;20041;-82
2021/09/03 08:38:39;;;;;;;30.30;19.48;;;;;;;;;;5036727;28;20025;-82
2021/09/03 08:41:04;;;;;;;30.90;17.83;;;;;;;;;;5036754;28;20025;-82
2021/09/03 08:43:30;;;;;;;30.02;18.48;;;;;;;;;;5021256;28;20035;-82
2021/09/03 08:45:55;;;;;;;26.83;18.20;;;;;;;;;;5020279;28;20437;-82
2021/09/03 08:48:23;;;;;;;25.75;17.48;;;;;;;;;;5053683;28;20044;-82
2021/09/03 08:50:52;;;;;;;25.65;18.05;;;;;;;;;;5054831;28;20021;-82
2021/09/03 08:53:20;;;;;;;24.30;17.10;;;;;;;;;;5054242;28;20055;-83
2021/09/03 08:55:47;;;;;;;22.15;16.08;;;;;;;;;;5055311;28;20025;-82
2021/09/03 08:58:13;;;;;;;23.48;16.13;;;;;;;;;;5054058;28;20036;-82
2021/09/03 09:00:40;;;;;;;24.75;16.08;;;;;;;;;;5055156;28;20476;-82
2021/09/03 09:03:07;;;;;;;24.33;15.30;;;;;;;;;;5057281;28;20108;-82
2021/09/03 09:05:50;;;;;;;21.02;15.55;;;;;;;;;;5057322;28;20021;-82
2021/09/03 09:08:19;;;;;;;23.25;15.98;;;;;;;;;;5059028;28;20503;-82
2021/09/03 09:11:06;;;;;;;21.25;15.45;;;;;;;;;;5064689;28;20029;-84
2021/09/03 09:13:37;;;;;;;20.83;15.05;;;;;;;;;;5058082;28;20053;-82
2021/09/03 09:16:09;;;;;;;23.13;14.70;;;;;;;;;;5043893;28;20025;-84
2021/09/03 09:18:49;;;;;;;23.42;14.50;;;;;;;;;;5057706;28;20021;-82
2021/09/03 09:21:31;;;;;;;19.40;14.32;;;;;;;;;;5058244;28;20029;-82
2021/09/03 09:24:09;;;;;;;21.00;14.15;;;;;;;;;;5057521;28;20021;-83
2021/09/03 09:26:56;;;;;;;20.00;13.85;;;;;;;;;;5058599;28;20469;-83
2021/09/03 09:29:24;;;;;;;23.25;14.40;;;;;;;;;;5047711;28;20024;-83
2021/09/03 09:31:53;;;;;;;19.42;13.70;;;;;;;;;;5056978;28;20602;-83
2021/09/03 09:34:29;;;;;;;23.35;14.00;;;;;;;;;;5057448;28;20021;-83
2021/09/03 09:36:57;;;;;;;25.52;14.48;;;;;;;;;;5057655;28;20037;-82
2021/09/03 09:39:24;;;;;;;18.55;13.70;;;;;;;;;;5058498;28;20531;-83
2021/09/03 09:42:01;;;;;;;20.05;13.98;;;;;;;;;;5057379;28;20044;-82
2021/09/03 09:44:31;;;;;;;19.77;13.30;;;;;;;;;;5057730;28;20033;-83
2021/09/03 09:47:09;;;;;;;16.63;12.27;;;;;;;;;;5057464;28;20398;-83
2021/09/03 09:49:35;;;;;;;18.90;12.15;;;;;;;;;;5059768;28;20389;-83
2021/09/03 09:52:01;;;;;;;18.52;12.68;;;;;;;;;;5061325;28;20085;-83
2021/09/03 09:54:27;;;;;;;19.40;12.48;;;;;;;;;;5033365;28;20060;-83
2021/09/03 09:56:54;;;;;;;15.60;11.88;;;;;;;;;;5059670;28;20033;-83
2021/09/03 09:59:23;;;;;;;17.52;11.20;;;;;;;;;;5056867;28;20044;-82
2021/09/03 10:01:50;;;;;;;17.98;11.18;;;;;;;;;;5052996;28;20492;-82
2021/09/03 10:04:18;;;;;;;17.33;11.48;;;;;;;;;;5046589;28;20136;-83
2021/09/03 10:06:46;;;;;;;16.50;10.95;;;;;;;;;;5041595;28;20444;-80
2021/09/03 10:09:14;;;;;;;17.05;10.73;;;;;;;;;;5029905;28;20473;-80
2021/09/03 10:11:42;;;;;;;14.68;9.93;;;;;;;;;;5047114;28;20025;-80
2021/09/03 10:14:10;;;;;;;16.23;10.85;;;;;;;;;;5049369;28;20032;-80
2021/09/03 10:16:36;;;;;;;18.92;12.13;;;;;;;;;;5031556;28;20432;-80
2021/09/03 10:19:06;;;;;;;19.70;11.23;;;;;;;;;;5051139;28;20079;-81
2021/09/03 10:21:36;;;;;;;14.27;10.25;;;;;;;;;;5044435;28;20032;-81
2021/09/03 10:24:22;;;;;;;15.23;10.95;;;;;;;;;;5043968;28;20049;-81
2021/09/03 10:26:49;;;;;;;19.95;10.77;;;;;;;;;;5050063;28;20025;-81
2021/09/03 10:29:29;;;;;;;16.40;10.43;;;;;;;;;;5043755;28;20037;-81
2021/09/03 10:32:07;;;;;;;13.35;9.48;;;;;;;;;;5050777;28;20025;-82
2021/09/03 10:34:39;;;;;;;16.98;10.38;;;;;;;;;;5048823;28;20123;-80
2021/09/03 10:37:05;;;;;;;16.38;10.60;;;;;;;;;;5053052;28;20026;-80
2021/09/03 10:39:43;;;;;;;15.30;9.10;;;;;;;;;;5049772;28;20028;-80
2021/09/03 10:42:09;;;;;;;15.32;9.90;;;;;;;;;;5043175;28;20112;-80
2021/09/03 10:45:06;;;;;;;18.75;11.43;;;;;;;;;;5046334;28;20110;-81
2021/09/03 10:47:53;;;;;;;16.58;10.57;;;;;;;;;;5048159;28;20047;-82
2021/09/03 10:50:32;;;;;;;18.40;9.77;;;;;;;;;;5049196;28;20044;-81
2021/09/03 10:53:04;;;;;;;14.80;9.73;;;;;;;;;;5049443;28;20771;-83
2021/09/03 10:56:07;;;;;;;18.00;11.00;;;;;;;;;;5045830;28;20033;-84
2021/09/03 10:58:55;;;;;;;15.18;9.98;;;;;;;;;;5053355;28;20040;-82
2021/09/03 11:01:20;;;;;;;16.45;11.05;;;;;;;;;;5046860;28;20457;-84
2021/09/03 11:03:55;;;;;;;15.35;9.82;;;;;;;;;;5049264;28;20052;-83
2021/09/03 11:06:23;;;;;;;15.98;9.07;;;;;;;;;;5046487;28;20017;-83
2021/09/03 11:08:51;;;;;;;14.00;9.50;;;;;;;;;;5043520;28;20477;-84
2021/09/03 11:11:44;;;;;;;16.63;10.75;;;;;;;;;;5029828;28;20032;-84
2021/09/03 11:14:19;;;;;;;16.77;9.95;;;;;;;;;;5046965;28;20072;-83
2021/09/03 11:16:54;;;;;;;15.25;9.35;;;;;;;;;;5040887;28;20036;-84
2021/09/03 11:19:24;;;;;;;13.00;9.18;;;;;;;;;;5043683;28;20031;-84
2021/09/03 11:22:16;;;;;;;16.85;9.48;;;;;;;;;;5044813;28;20033;-84
2021/09/03 11:24:44;;;;;;;13.82;8.93;;;;;;;;;;5048216;28;20094;-84
2021/09/03 11:27:15;;;;;;;15.73;9.52;;;;;;;;;;5043040;28;20068;-84
2021/09/03 11:30:01;;;;;;;14.38;9.45;;;;;;;;;;5044994;28;20033;-84
2021/09/03 11:32:34;;;;;;;14.70;9.80;;;;;;;;;;5047356;28;20029;-84
2021/09/03 11:35:10;;;;;;;14.50;10.05;;;;;;;;;;5037032;28;20049;-84
2021/09/03 11:37:39;;;;;;;14.30;9.60;;;;;;;;;;5045066;28;20476;-84
2021/09/03 11:40:06;;;;;;;16.33;10.68;;;;;;;;;;5048807;28;20025;-84
2021/09/03 11:42:33;;;;;;;15.10;10.85;;;;;;;;;;5041787;28;20405;-84
2021/09/03 11:45:02;;;;;;;16.33;10.23;;;;;;;;;;5031835;28;20026;-84
2021/09/03 11:47:32;;;;;;;14.15;9.50;;;;;;;;;;5048891;28;20028;-84
2021/09/03 11:49:59;;;;;;;13.82;10.13;;;;;;;;;;5041685;28;20067;-84
2021/09/03 11:52:29;;;;;;;14.52;10.00;;;;;;;;;;5029572;28;20064;-83
2021/09/03 11:54:55;;;;;;;16.98;9.50;;;;;;;;;;5031181;28;21976;-83
2021/09/03 11:57:22;;;;;;;13.98;9.65;;;;;;;;;;5037614;28;20048;-84
2021/09/03 11:59:53;;;;;;;13.38;8.52;;;;;;;;;;5041080;28;20045;-84
2021/09/03 12:02:19;;;;;;;11.35;6.70;;;;;;;;;;5031380;28;20090;-83
2021/09/03 12:04:45;;;;;;;12.15;7.50;;;;;;;;;;5051687;28;20025;-83
2021/09/03 12:07:18;;;;;;;13.95;9.38;;;;;;;;;;5037049;28;20325;-84
2021/09/03 12:09:44;;;;;;;;;;;;;;;;;;5036877;28;20032;-83
2021/09/03 12:12:09;;;;;;;17.25;9.73;;;;;;;;;;5046602;28;19989;-84
2021/09/03 12:14:35;;;;;;;13.43;9.50;;;;;;;;;;5031371;28;20179;-83
2021/09/03 12:17:01;;;;;;;14.77;10.00;;;;;;;;;;5049152;28;20086;-84
2021/09/03 12:19:27;;;;;;;15.13;10.13;;;;;;;;;;5038458;28;20065;-84
2021/09/03 12:21:52;;;;;;;13.55;9.52;;;;;;;;;;5036622;28;20124;-84
2021/09/03 12:24:21;;;;;;;15.55;9.20;;;;;;;;;;5037189;28;20385;-84
2021/09/03 12:26:52;;;;;;;16.85;9.13;;;;;;;;;;5047718;28;20092;-84
2021/09/03 12:29:23;;;;;;;12.82;8.80;;;;;;;;;;5037808;28;20029;-84
2021/09/03 12:31:54;;;;;;;13.32;9.82;;;;;;;;;;5025273;28;20686;-84
2021/09/03 12:34:23;;;;;;;15.43;8.10;;;;;;;;;;5042474;28;20093;-84
2021/09/03 12:36:59;;;;;;;17.45;9.15;;;;;;;;;;5019194;28;20275;-84
2021/09/03 12:39:26;;;;;;;13.55;8.88;;;;;;;;;;5033045;28;20071;-84
2021/09/03 12:41:52;;;;;;;13.48;9.18;;;;;;;;;;5034206;28;20037;-84
2021/09/03 12:44:28;;;;;;;16.17;9.25;;;;;;;;;;5019477;28;20033;-84
2021/09/03 12:46:59;;;;;;;11.25;8.77;;;;;;;;;;5032090;28;20031;-84
2021/09/03 12:49:44;;;;;;;14.27;9.40;;;;;;;;;;5036131;28;20041;-84
2021/09/03 12:52:19;;;;;;;13.23;9.70;;;;;;;;;;5020438;28;20053;-85
2021/09/03 12:54:44;;;;;;;14.80;9.23;;;;;;;;;;5041022;28;20439;-84
2021/09/03 12:57:12;;;;;;;13.30;9.75;;;;;;;;;;5026483;28;20045;-84
2021/09/03 12:59:37;;;;;;;15.13;8.65;;;;;;;;;;5025756;28;20063;-84
2021/09/03 13:02:06;;;;;;;14.70;9.70;;;;;;;;;;5042230;28;20064;-84
2021/09/03 13:04:33;;;;;;;14.80;9.48;;;;;;;;;;5020439;28;20550;-85
2021/09/03 13:06:58;;;;;;;17.65;10.05;;;;;;;;;;5030909;28;20025;-85
2021/09/03 13:09:27;;;;;;;13.70;9.00;;;;;;;;;;5017509;28;20052;-85
2021/09/03 13:11:53;;;;;;;12.63;9.23;;;;;;;;;;5026704;28;20073;-85
2021/09/03 13:14:19;;;;;;;14.95;9.05;;;;;;;;;;5031999;28;20437;-85
2021/09/03 13:16:45;;;;;;;13.68;9.05;;;;;;;;;;5041899;28;20063;-84
2021/09/03 13:19:13;;;;;;;13.00;9.82;;;;;;;;;;5020305;28;20132;-84
2021/09/03 13:21:40;;;;;;;13.18;8.90;;;;;;;;;;5034284;28;20393;-85
2021/09/03 13:24:06;;;;;;;11.77;8.38;;;;;;;;;;5040000;28;20036;-84
2021/09/03 13:26:32;;;;;;;15.50;9.38;;;;;;;;;;5039342;28;20175;-84
2021/09/03 13:28:58;;;;;;;11.52;9.02;;;;;;;;;;5041099;28;20408;-84
2021/09/03 13:31:25;;;;;;;12.88;8.57;;;;;;;;;;5052309;28;20025;-84
2021/09/03 13:33:53;;;;;;;12.25;8.35;;;;;;;;;;5037591;28;20032;-84
2021/09/03 13:36:20;;;;;;;13.90;9.00;;;;;;;;;;5046622;28;20040;-84
2021/09/03 13:38:47;;;;;;;13.60;8.95;;;;;;;;;;5039548;28;20037;-84
2021/09/03 13:41:14;;;;;;;13.02;8.88;;;;;;;;;;5046215;28;20538;-84
2021/09/03 13:43:46;;;;;;;10.50;7.57;;;;;;;;;;5041014;28;20041;-84
2021/09/03 13:46:17;;;;;;;11.20;8.18;;;;;;;;;;5049795;28;20520;-84
2021/09/03 13:48:46;;;;;;;11.07;7.68;;;;;;;;;;5035921;28;20116;-84
2021/09/03 13:51:15;;;;;;;12.05;7.85;;;;;;;;;;5039211;28;20041;-84
2021/09/03 13:53:44;;;;;;;12.85;7.85;;;;;;;;;;5041155;28;20070;-84
2021/09/03 13:56:29;;;;;;;10.68;8.05;;;;;;;;;;5050759;28;20128;-84
2021/09/03 13:59:07;;;;;;;15.23;8.13;;;;;;;;;;5026675;28;20041;-84
2021/09/03 14:01:34;;;;;;;11.07;7.28;;;;;;;;;;5020026;28;20072;-84
2021/09/03 14:04:38;;;;;;;15.00;7.53;;;;;;;;;;5032429;28;20033;-84
2021/09/03 14:07:12;;;;;;;11.93;7.97;;;;;;;;;;5037334;28;20401;-83
2021/09/03 14:09:38;;;;;;;15.27;8.48;;;;;;;;;;5048642;28;20032;-83
2021/09/03 14:12:07;;;;;;;11.27;7.72;;;;;;;;;;5034523;28;20043;-84
2021/09/03 14:14:34;;;;;;;15.00;7.70;;;;;;;;;;5027280;28;20032;-84
2021/09/03 14:16:59;;;;;;;10.75;7.93;;;;;;;;;;5052245;28;20124;-84
2021/09/03 14:19:25;;;;;;;11.20;8.00;;;;;;;;;;5029911;28;20104;-83
2021/09/03 14:21:51;;;;;;;11.88;7.75;;;;;;;;;;5052809;28;20033;-84
2021/09/03 14:24:16;;;;;;;10.70;7.53;;;;;;;;;;5047299;28;20111;-84